createdAt,value
2019-03-30T00:00:36.403Z,6.40
2019-03-30T00:03:07.686Z,6.10
2019-03-30T00:05:39.011Z,6.37
2019-03-30T00:08:16.104Z,6.10
2019-03-30T00:10:48.241Z,6.20
2019-03-30T00:13:19.416Z,6.10
2019-03-30T00:15:50.551Z,5.50
2019-03-30T00:18:21.703Z,6.00
2019-03-30T00:20:52.977Z,5.70
2019-03-30T00:23:24.275Z,5.73
2019-03-30T00:25:55.385Z,6.03
2019-03-30T00:28:26.517Z,6.47
2019-03-30T00:30:57.628Z,6.03
2019-03-30T00:33:33.256Z,5.90
2019-03-30T00:36:04.445Z,6.47
2019-03-30T00:38:37.690Z,5.83
2019-03-30T00:41:18.048Z,5.50
2019-03-30T00:43:49.264Z,5.60
2019-03-30T00:46:20.470Z,5.60
2019-03-30T00:48:51.635Z,7.10
2019-03-30T00:51:22.739Z,7.20
2019-03-30T00:53:54.004Z,8.13
2019-03-30T00:56:26.109Z,8.00
2019-03-30T00:58:57.201Z,8.03
2019-03-30T01:01:28.325Z,8.33
2019-03-30T01:03:59.446Z,8.03
2019-03-30T01:06:30.699Z,7.87
2019-03-30T01:09:01.880Z,7.73
2019-03-30T01:11:33.159Z,7.47
2019-03-30T01:14:10.344Z,5.80
2019-03-30T01:16:42.006Z,5.57
2019-03-30T01:19:13.208Z,5.63
2019-03-30T01:21:45.415Z,5.07
2019-03-30T01:24:17.552Z,5.30
2019-03-30T01:26:48.843Z,5.53
2019-03-30T01:29:20.181Z,4.73
2019-03-30T01:31:51.289Z,5.47
2019-03-30T01:34:44.346Z,5.00
2019-03-30T01:37:15.776Z,5.30
2019-03-30T01:39:52.634Z,5.67
2019-03-30T01:42:23.679Z,6.93
2019-03-30T01:45:03.205Z,6.90
2019-03-30T01:47:34.303Z,6.00
2019-03-30T01:50:17.369Z,6.10
2019-03-30T01:52:42.990Z,5.53
2019-03-30T01:55:14.226Z,5.77
2019-03-30T01:57:45.367Z,5.17
2019-03-30T02:00:17.051Z,5.27
2019-03-30T02:02:48.195Z,4.90
2019-03-30T02:05:19.332Z,5.37
2019-03-30T02:07:50.435Z,6.20
2019-03-30T02:10:38.798Z,6.67
2019-03-30T02:13:10.271Z,6.20
2019-03-30T02:15:41.476Z,6.40
2019-03-30T02:18:12.681Z,6.80
2019-03-30T02:20:44.903Z,5.97
2019-03-30T02:23:16.489Z,7.10
2019-03-30T02:25:47.619Z,8.20
2019-03-30T02:28:18.833Z,7.50
2019-03-30T02:30:51.068Z,6.47
2019-03-30T02:33:30.572Z,6.23
2019-03-30T02:36:02.868Z,6.37
2019-03-30T02:38:34.003Z,5.57
2019-03-30T02:41:08.245Z,6.00
2019-03-30T02:43:39.450Z,6.13
2019-03-30T02:46:10.745Z,6.53
2019-03-30T02:48:42.152Z,6.40
2019-03-30T02:51:13.507Z,6.73
2019-03-30T02:53:44.840Z,6.63
2019-03-30T02:56:16.238Z,6.90
2019-03-30T02:58:48.736Z,7.00
2019-03-30T03:01:22.539Z,6.87
2019-03-30T03:03:57.531Z,7.03
2019-03-30T03:06:28.620Z,7.43
2019-03-30T03:08:59.869Z,8.10
2019-03-30T03:11:33.876Z,8.80
2019-03-30T03:14:07.035Z,8.40
2019-03-30T03:16:38.238Z,8.60
2019-03-30T03:19:09.509Z,8.63
2019-03-30T03:21:40.631Z,8.40
2019-03-30T03:24:12.752Z,8.70
2019-03-30T03:26:43.849Z,9.07
2019-03-30T03:29:15.103Z,9.20
2019-03-30T03:31:46.291Z,9.47
2019-03-30T03:34:18.574Z,9.27
2019-03-30T03:36:50.762Z,9.47
2019-03-30T03:39:21.982Z,9.17
2019-03-30T03:41:53.076Z,8.33
2019-03-30T03:44:25.208Z,8.07
2019-03-30T03:46:56.432Z,8.40
2019-03-30T03:49:27.737Z,8.00
2019-03-30T03:51:59.081Z,7.93
2019-03-30T03:54:30.749Z,8.33
2019-03-30T03:57:03.659Z,7.97
2019-03-30T03:59:40.708Z,8.20
2019-03-30T04:02:13.192Z,7.83
2019-03-30T04:04:47.564Z,8.00
2019-03-30T04:07:19.556Z,7.33
2019-03-30T04:09:52.524Z,7.97
2019-03-30T04:12:24.930Z,8.00
2019-03-30T04:15:01.630Z,8.33
2019-03-30T04:17:37.370Z,9.10
2019-03-30T04:20:15.933Z,8.67
2019-03-30T04:22:47.148Z,7.60
2019-03-30T04:25:18.303Z,9.10
2019-03-30T04:27:49.443Z,9.03
2019-03-30T04:30:20.598Z,8.90
2019-03-30T04:32:52.803Z,9.20
2019-03-30T04:35:23.985Z,8.83
2019-03-30T04:38:03.197Z,9.07
2019-03-30T04:40:34.721Z,8.50
2019-03-30T04:43:05.848Z,9.40
2019-03-30T04:45:37.058Z,8.30
2019-03-30T04:48:08.178Z,8.80
2019-03-30T04:50:39.315Z,8.20
2019-03-30T04:53:10.762Z,8.67
2019-03-30T04:55:42.180Z,8.70
2019-03-30T04:58:13.301Z,8.43
2019-03-30T05:00:45.521Z,8.30
2019-03-30T05:03:16.693Z,8.33
2019-03-30T05:05:47.932Z,8.70
2019-03-30T05:08:27.170Z,8.10
2019-03-30T05:10:58.357Z,7.80
2019-03-30T05:13:31.762Z,8.23
2019-03-30T05:16:02.977Z,8.13
2019-03-30T05:18:38.161Z,8.07
2019-03-30T05:21:09.358Z,8.73
2019-03-30T05:23:44.696Z,8.27
2019-03-30T05:26:16.904Z,8.47
2019-03-30T05:28:48.034Z,8.30
2019-03-30T05:31:21.262Z,8.90
2019-03-30T05:34:00.290Z,8.70
2019-03-30T05:36:33.519Z,9.87
2019-03-30T05:39:12.607Z,11.13
2019-03-30T05:41:43.867Z,11.60
2019-03-30T05:44:15.115Z,10.57
2019-03-30T05:46:46.244Z,9.93
2019-03-30T05:49:17.385Z,10.37
2019-03-30T05:51:48.600Z,10.80
2019-03-30T05:54:19.798Z,10.57
2019-03-30T05:56:50.987Z,11.23
2019-03-30T05:59:22.275Z,10.07
2019-03-30T06:01:53.447Z,9.97
2019-03-30T06:04:24.750Z,9.07
2019-03-30T06:06:55.992Z,9.33
2019-03-30T06:09:27.252Z,8.83
2019-03-30T06:11:59.373Z,9.53
2019-03-30T06:14:35.692Z,8.87
2019-03-30T06:17:06.927Z,8.43
2019-03-30T06:19:38.092Z,8.93
2019-03-30T06:22:09.274Z,9.17
2019-03-30T06:24:46.333Z,9.20
2019-03-30T06:27:18.521Z,9.07
2019-03-30T06:30:26.039Z,8.80
2019-03-30T06:32:59.100Z,9.00
2019-03-30T06:35:34.406Z,9.47
2019-03-30T06:38:05.669Z,9.70
2019-03-30T06:40:40.900Z,8.83
2019-03-30T06:43:12.153Z,9.20
2019-03-30T06:45:46.606Z,8.90
2019-03-30T06:48:22.102Z,9.43
2019-03-30T06:50:53.331Z,9.50
2019-03-30T06:53:25.574Z,8.80
2019-03-30T06:55:57.783Z,8.83
2019-03-30T06:58:30.763Z,9.20
2019-03-30T07:01:02.253Z,9.80
2019-03-30T07:03:35.504Z,9.53
2019-03-30T07:06:06.930Z,9.33
2019-03-30T07:08:39.030Z,8.60
2019-03-30T07:11:21.055Z,10.03
2019-03-30T07:13:45.161Z,9.27
2019-03-30T07:16:17.051Z,9.90
2019-03-30T07:18:48.883Z,9.33
2019-03-30T07:21:20.011Z,9.27
2019-03-30T07:23:57.242Z,9.27
2019-03-30T07:26:28.403Z,9.20
2019-03-30T07:28:59.628Z,9.53
2019-03-30T07:31:30.866Z,8.93
2019-03-30T07:34:02.021Z,9.67
2019-03-30T07:36:38.514Z,9.60
2019-03-30T07:39:09.760Z,8.63
2019-03-30T07:41:42.059Z,9.43
2019-03-30T07:44:16.432Z,9.53
2019-03-30T07:46:47.586Z,10.17
2019-03-30T07:49:18.778Z,10.03
2019-03-30T07:51:49.847Z,9.90
2019-03-30T07:54:21.504Z,9.63
2019-03-30T07:57:04.126Z,9.50
2019-03-30T07:59:28.550Z,9.90
2019-03-30T08:01:59.737Z,9.50
2019-03-30T08:04:47.055Z,9.30
2019-03-30T08:07:18.393Z,9.13
2019-03-30T08:09:49.531Z,9.40
2019-03-30T08:12:27.273Z,10.00
2019-03-30T08:14:58.530Z,10.50
2019-03-30T08:17:29.822Z,9.93
2019-03-30T08:20:02.049Z,10.50
2019-03-30T08:22:38.807Z,10.13
2019-03-30T08:25:10.072Z,10.37
2019-03-30T08:27:44.269Z,10.90
2019-03-30T08:30:16.135Z,10.23
2019-03-30T08:32:47.370Z,10.23
2019-03-30T08:35:18.640Z,10.83
2019-03-30T08:37:50.093Z,10.93
2019-03-30T08:40:21.300Z,11.10
2019-03-30T08:42:52.637Z,10.30
2019-03-30T08:45:24.910Z,11.17
2019-03-30T08:48:00.562Z,11.90
2019-03-30T08:50:37.626Z,11.03
2019-03-30T08:53:08.783Z,10.87
2019-03-30T08:55:39.955Z,10.60
2019-03-30T08:58:11.481Z,10.20
2019-03-30T09:00:43.503Z,10.50
2019-03-30T09:03:14.774Z,9.80
2019-03-30T09:05:46.986Z,10.07
2019-03-30T09:08:18.138Z,9.93
2019-03-30T09:10:49.231Z,9.87
2019-03-30T09:13:23.763Z,10.70
2019-03-30T09:15:56.992Z,11.03
2019-03-30T09:18:28.140Z,10.10
2019-03-30T09:21:00.332Z,9.27
2019-03-30T09:23:31.616Z,10.13
2019-03-30T09:26:03.740Z,10.07
2019-03-30T09:28:36.098Z,10.20
2019-03-30T09:31:07.283Z,9.97
2019-03-30T09:33:42.317Z,9.53
2019-03-30T09:36:15.553Z,10.70
2019-03-30T09:38:46.857Z,10.57
2019-03-30T09:41:23.933Z,10.27
2019-03-30T09:43:55.082Z,9.60
2019-03-30T09:46:27.235Z,11.20
2019-03-30T09:49:00.107Z,10.80
2019-03-30T09:51:32.386Z,11.60
2019-03-30T09:54:03.628Z,10.27
2019-03-30T09:56:34.780Z,10.73
2019-03-30T09:59:06.068Z,11.20
2019-03-30T10:01:41.308Z,10.57
2019-03-30T10:04:12.530Z,10.93
2019-03-30T10:06:44.756Z,11.57
2019-03-30T10:09:33.452Z,12.03
2019-03-30T10:12:04.694Z,11.97
2019-03-30T10:14:38.996Z,11.40
2019-03-30T10:17:15.329Z,10.97
2019-03-30T10:19:58.034Z,11.17
2019-03-30T10:22:24.269Z,12.03
2019-03-30T10:24:58.261Z,11.40
2019-03-30T10:27:29.337Z,11.30
2019-03-30T10:30:00.519Z,11.50
2019-03-30T10:32:31.773Z,11.30
2019-03-30T10:35:09.717Z,10.60
2019-03-30T10:37:41.167Z,10.80
2019-03-30T10:40:12.668Z,11.50
2019-03-30T10:42:43.838Z,11.30
2019-03-30T10:45:15.129Z,11.77
2019-03-30T10:47:46.400Z,10.97
2019-03-30T10:50:17.679Z,10.83
2019-03-30T10:52:48.946Z,10.70
2019-03-30T10:55:20.251Z,10.83
2019-03-30T10:57:58.801Z,10.20
2019-03-30T11:00:38.748Z,10.90
2019-03-30T11:03:09.894Z,10.43
2019-03-30T11:05:42.040Z,9.60
2019-03-30T11:08:14.288Z,9.23
2019-03-30T11:10:46.121Z,9.33
2019-03-30T11:13:17.251Z,9.23
2019-03-30T11:15:48.578Z,9.30
2019-03-30T11:18:26.067Z,9.43
2019-03-30T11:21:02.754Z,8.13
2019-03-30T11:23:33.943Z,8.70
2019-03-30T11:26:11.724Z,8.03
2019-03-30T11:28:55.480Z,8.10
2019-03-30T11:31:32.201Z,8.27
2019-03-30T11:34:13.431Z,7.87
2019-03-30T11:36:44.651Z,7.60
2019-03-30T11:39:40.278Z,7.53
2019-03-30T11:42:11.573Z,6.10
2019-03-30T11:44:42.693Z,5.87
2019-03-30T11:47:14.935Z,5.57
2019-03-30T11:49:46.136Z,6.37
2019-03-30T11:52:19.228Z,6.17
2019-03-30T11:54:50.379Z,6.57
2019-03-30T11:57:23.632Z,7.30
2019-03-30T11:59:55.831Z,6.87
2019-03-30T12:02:45.017Z,6.67
2019-03-30T12:05:19.958Z,6.93
2019-03-30T12:07:54.475Z,6.30
2019-03-30T12:10:26.710Z,5.80
2019-03-30T12:12:58.864Z,6.77
2019-03-30T12:15:30.103Z,6.90
2019-03-30T12:18:09.451Z,6.63
2019-03-30T12:20:40.733Z,6.23
2019-03-30T12:23:11.855Z,6.10
2019-03-30T12:25:44.007Z,6.23
2019-03-30T12:28:15.329Z,7.17
2019-03-30T12:30:46.605Z,6.90
2019-03-30T12:33:18.928Z,6.50
2019-03-30T12:35:50.081Z,7.83
2019-03-30T12:38:21.334Z,7.27
2019-03-30T12:40:53.107Z,7.23
2019-03-30T12:43:25.461Z,7.23
2019-03-30T12:45:59.472Z,7.63
2019-03-30T12:48:32.669Z,6.60
2019-03-30T12:51:06.536Z,7.67
2019-03-30T12:53:50.106Z,7.37
2019-03-30T12:56:17.693Z,7.40
2019-03-30T12:58:57.009Z,7.23
2019-03-30T13:01:31.191Z,7.87
2019-03-30T13:04:02.943Z,7.83
2019-03-30T13:06:44.659Z,7.43
2019-03-30T13:09:35.079Z,8.37
2019-03-30T13:12:08.901Z,7.97
2019-03-30T13:14:41.127Z,7.70
2019-03-30T13:17:14.535Z,7.67
2019-03-30T13:19:56.182Z,8.30
2019-03-30T13:22:34.258Z,8.57
2019-03-30T13:25:07.344Z,8.03
2019-03-30T13:27:40.951Z,7.97
2019-03-30T13:30:13.248Z,8.53
2019-03-30T13:32:45.963Z,8.23
2019-03-30T13:35:20.700Z,8.53
2019-03-30T13:37:53.770Z,8.70
2019-03-30T13:40:29.007Z,8.23
2019-03-30T13:43:00.326Z,8.87
2019-03-30T13:45:31.591Z,8.70
2019-03-30T13:48:05.041Z,9.20
2019-03-30T13:50:39.513Z,8.50
2019-03-30T13:53:12.651Z,8.43
2019-03-30T13:55:43.963Z,9.07
2019-03-30T13:58:15.336Z,8.53
2019-03-30T14:00:48.616Z,8.37
2019-03-30T14:03:21.799Z,9.00
2019-03-30T14:05:57.667Z,8.20
2019-03-30T14:08:30.049Z,8.47
2019-03-30T14:11:03.312Z,8.30
2019-03-30T14:13:40.704Z,7.50
2019-03-30T14:16:11.930Z,8.80
2019-03-30T14:18:45.107Z,9.00
2019-03-30T14:21:16.453Z,8.33
2019-03-30T14:23:47.587Z,9.83
2019-03-30T14:26:30.837Z,9.10
2019-03-30T14:29:02.420Z,8.23
2019-03-30T14:31:41.466Z,8.80
2019-03-30T14:34:18.272Z,7.73
2019-03-30T14:36:52.493Z,8.00
2019-03-30T14:39:23.827Z,8.27
2019-03-30T14:42:00.696Z,8.80
2019-03-30T14:44:33.095Z,9.20
2019-03-30T14:47:13.410Z,8.40
2019-03-30T14:49:46.586Z,7.13
2019-03-30T14:52:19.664Z,8.67
2019-03-30T14:54:58.624Z,8.73
2019-03-30T14:57:35.914Z,9.63
2019-03-30T15:00:08.103Z,8.73
2019-03-30T15:02:39.281Z,8.50
2019-03-30T15:05:10.541Z,7.63
2019-03-30T15:07:42.842Z,8.80
2019-03-30T15:10:14.142Z,8.30
2019-03-30T15:12:45.479Z,8.73
2019-03-30T15:15:18.099Z,8.67
2019-03-30T15:17:49.292Z,8.57
2019-03-30T15:20:25.538Z,8.43
2019-03-30T15:22:56.709Z,9.50
2019-03-30T15:25:27.907Z,8.93
2019-03-30T15:28:02.058Z,10.37
2019-03-30T15:30:35.275Z,9.40
2019-03-30T15:33:07.425Z,9.37
2019-03-30T15:35:42.397Z,8.27
2019-03-30T15:38:14.518Z,8.00
2019-03-30T15:40:45.923Z,8.53
2019-03-30T15:43:37.154Z,9.77
2019-03-30T15:45:59.649Z,9.00
2019-03-30T15:48:36.872Z,9.10
2019-03-30T15:51:08.201Z,9.13
2019-03-30T15:53:39.429Z,9.13
2019-03-30T15:56:43.273Z,9.63
2019-03-30T15:59:22.197Z,9.73
2019-03-30T16:06:22.249Z,8.87
2019-03-30T16:08:54.507Z,9.13
2019-03-30T16:11:32.941Z,9.43
2019-03-30T16:14:04.882Z,9.93
2019-03-30T16:16:56.125Z,9.77
2019-03-30T16:19:45.266Z,10.03
2019-03-30T16:22:18.608Z,9.23
2019-03-30T16:24:49.908Z,9.97
2019-03-30T16:27:28.917Z,9.27
2019-03-30T16:29:58.445Z,9.60
2019-03-30T16:32:33.863Z,9.47
2019-03-30T16:38:01.578Z,9.50
2019-03-30T16:40:40.847Z,9.50
2019-03-30T16:43:12.098Z,9.97
2019-03-30T16:45:43.520Z,9.93
2019-03-30T16:48:14.965Z,9.20
2019-03-30T16:50:46.249Z,10.37
2019-03-30T16:53:21.773Z,9.33
2019-03-30T16:55:53.055Z,9.53
2019-03-30T16:58:25.331Z,10.20
2019-03-30T17:00:57.195Z,10.07
2019-03-30T17:03:28.725Z,8.97
2019-03-30T17:06:03.955Z,10.13
2019-03-30T17:08:37.197Z,10.47
2019-03-30T17:11:09.052Z,10.53
2019-03-30T17:13:41.847Z,10.13
2019-03-30T17:16:13.027Z,9.93
2019-03-30T17:18:44.182Z,9.60
2019-03-30T17:21:15.381Z,11.07
2019-03-30T17:23:46.662Z,10.17
2019-03-30T17:26:18.985Z,11.33
2019-03-30T17:28:50.078Z,11.50
2019-03-30T17:31:26.569Z,10.30
2019-03-30T17:33:58.892Z,11.63
2019-03-30T17:36:30.262Z,12.13
2019-03-30T17:39:01.622Z,10.50
2019-03-30T17:41:36.701Z,9.63
2019-03-30T17:44:17.771Z,10.00
2019-03-30T17:46:48.892Z,10.57
2019-03-30T17:49:20.528Z,11.10
2019-03-30T17:51:59.779Z,11.20
2019-03-30T17:54:32.111Z,12.27
2019-03-30T17:57:03.564Z,13.17
2019-03-30T17:59:36.794Z,12.60
2019-03-30T18:02:11.403Z,13.70
2019-03-30T18:04:42.734Z,12.03
2019-03-30T18:07:14.120Z,13.10
2019-03-30T18:09:45.283Z,14.03
2019-03-30T18:12:16.612Z,13.17
2019-03-30T18:14:49.878Z,13.80
2019-03-30T18:17:21.097Z,12.53
2019-03-30T18:19:52.345Z,13.00
2019-03-30T18:22:23.547Z,12.07
2019-03-30T18:24:54.858Z,13.13
2019-03-30T18:27:26.166Z,12.90
2019-03-30T18:29:57.244Z,12.33
2019-03-30T18:32:28.419Z,11.87
2019-03-30T18:35:00.654Z,11.53
2019-03-30T18:37:33.852Z,11.57
2019-03-30T18:40:06.780Z,11.37
2019-03-30T18:42:40.064Z,11.73
2019-03-30T18:45:25.193Z,12.33
2019-03-30T18:48:10.274Z,12.17
2019-03-30T18:50:42.224Z,11.87
2019-03-30T18:53:13.825Z,12.37
2019-03-30T18:55:45.215Z,12.27
2019-03-30T18:58:16.479Z,12.07
2019-03-30T19:00:47.702Z,12.10
2019-03-30T19:03:20.208Z,14.50
2019-03-30T19:05:52.252Z,14.77
2019-03-30T19:08:23.484Z,12.63
2019-03-30T19:10:54.750Z,13.57
2019-03-30T19:13:26.126Z,13.20
2019-03-30T19:15:57.293Z,13.07
2019-03-30T19:18:28.773Z,12.70
2019-03-30T19:21:04.076Z,13.20
2019-03-30T19:23:35.315Z,12.23
2019-03-30T19:26:06.661Z,12.97
2019-03-30T19:28:37.889Z,13.60
2019-03-30T19:31:09.123Z,13.27
2019-03-30T19:33:40.314Z,14.43
2019-03-30T19:36:12.786Z,13.97
2019-03-30T19:38:44.041Z,15.03
2019-03-30T19:41:16.264Z,14.40
2019-03-30T19:43:47.601Z,14.63
2019-03-30T19:46:18.849Z,13.50
2019-03-30T19:48:50.100Z,13.50
2019-03-30T19:51:32.589Z,14.53
2019-03-30T19:54:03.858Z,15.47
2019-03-30T19:56:35.373Z,16.03
2019-03-30T19:59:10.931Z,15.67
2019-03-30T20:01:40.128Z,15.50
2019-03-30T20:04:12.763Z,14.03
2019-03-30T20:06:44.048Z,15.87
2019-03-30T20:09:15.521Z,15.40
2019-03-30T20:11:47.293Z,15.67
2019-03-30T20:14:18.549Z,15.33
2019-03-30T20:16:49.852Z,15.87
2019-03-30T20:19:28.055Z,15.13
2019-03-30T20:22:03.081Z,15.10
2019-03-30T20:24:34.394Z,16.33
2019-03-30T20:27:06.891Z,15.80
2019-03-30T20:29:39.116Z,15.27
2019-03-30T20:32:10.491Z,13.87
2019-03-30T20:34:48.534Z,14.77
2019-03-30T20:37:22.322Z,15.50
2019-03-30T20:39:59.712Z,16.43
2019-03-30T20:42:38.184Z,16.40
2019-03-30T20:45:09.856Z,14.57
2019-03-30T20:47:44.877Z,14.67
2019-03-30T20:50:18.133Z,16.00
2019-03-30T20:52:49.673Z,15.13
2019-03-30T20:55:22.049Z,16.70
2019-03-30T20:57:59.717Z,15.70
2019-03-30T21:00:30.969Z,16.60
2019-03-30T21:03:03.317Z,16.17
2019-03-30T21:05:34.712Z,16.80
2019-03-30T21:08:07.848Z,16.77
2019-03-30T21:10:39.140Z,19.30
2019-03-30T21:13:11.277Z,20.23
2019-03-30T21:15:44.505Z,20.07
2019-03-30T21:18:17.659Z,18.87
2019-03-30T21:20:49.138Z,20.70
2019-03-30T21:23:28.331Z,22.27
2019-03-30T21:25:59.629Z,22.23
2019-03-30T21:28:32.886Z,21.57
2019-03-30T21:31:04.129Z,21.87
2019-03-30T21:33:48.428Z,20.83
2019-03-30T21:36:20.846Z,22.00
2019-03-30T21:38:52.038Z,21.67
2019-03-30T21:41:25.228Z,21.10
2019-03-30T21:43:57.365Z,20.87
2019-03-30T21:46:28.542Z,20.33
2019-03-30T21:49:01.767Z,21.03
2019-03-30T21:51:33.059Z,20.97
2019-03-30T21:54:05.316Z,21.30
2019-03-30T21:56:36.525Z,21.03
2019-03-30T21:59:07.758Z,21.50
2019-03-30T22:01:39.018Z,22.63
2019-03-30T22:04:10.205Z,21.57
2019-03-30T22:06:41.415Z,23.43
2019-03-30T22:09:12.674Z,21.87
2019-03-30T22:11:43.920Z,22.80
2019-03-30T22:14:15.963Z,21.87
2019-03-30T22:16:47.203Z,22.03
2019-03-30T22:19:18.487Z,22.60
2019-03-30T22:21:56.166Z,24.90
2019-03-30T22:24:27.653Z,23.73
2019-03-30T22:26:58.814Z,23.50
2019-03-30T22:29:36.812Z,23.23
2019-03-30T22:32:07.987Z,23.60
2019-03-30T22:34:39.131Z,24.40
2019-03-30T22:37:11.038Z,22.60
2019-03-30T22:39:42.374Z,22.50
2019-03-30T22:42:13.742Z,25.03
2019-03-30T22:44:44.912Z,24.03
2019-03-30T22:47:16.155Z,26.13
2019-03-30T22:49:47.455Z,23.67
2019-03-30T22:52:20.355Z,24.07
2019-03-30T22:54:51.435Z,24.27
2019-03-30T22:57:38.772Z,24.20
2019-03-30T23:00:39.039Z,24.53
2019-03-30T23:03:12.126Z,24.00
2019-03-30T23:05:43.542Z,25.53
2019-03-30T23:08:14.773Z,24.87
2019-03-30T23:10:46.813Z,24.90
2019-03-30T23:13:20.678Z,24.23
2019-03-30T23:15:57.825Z,26.30
2019-03-30T23:18:31.146Z,25.73
2019-03-30T23:21:02.772Z,25.57
2019-03-30T23:23:39.970Z,27.80
2019-03-30T23:26:11.554Z,26.40
2019-03-30T23:28:43.072Z,26.63
2019-03-30T23:31:23.090Z,28.33
2019-03-30T23:33:56.130Z,27.50
2019-03-30T23:36:29.513Z,26.93
2019-03-30T23:39:00.882Z,27.70
2019-03-30T23:41:33.443Z,27.57
2019-03-30T23:44:05.228Z,27.73
2019-03-30T23:46:36.453Z,28.37
2019-03-30T23:49:07.902Z,28.63
2019-03-30T23:51:39.925Z,28.27
2019-03-30T23:54:15.531Z,27.63
2019-03-30T23:56:47.206Z,26.87
2019-03-30T23:59:20.224Z,28.00
